sensor_id;sensor_type;location;lat;lon;timestamp;P1;durP1;ratioP1;P2;durP2;ratioP2
39750;SDS011;37579;51.074;17.004;2024-02-23T00:01:03;4.63;;;1.40;;
39750;SDS011;37579;51.074;17.004;2024-02-23T00:03:29;2.00;;;1.20;;
39750;SDS011;37579;51.074;17.004;2024-02-23T00:05:55;1.65;;;1.15;;
39750;SDS011;37579;51.074;17.004;2024-02-23T00:08:21;2.80;;;1.33;;
39750;SDS011;37579;51.074;17.004;2024-02-23T00:10:46;2.10;;;1.20;;
39750;SDS011;37579;51.074;17.004;2024-02-23T00:13:12;2.17;;;1.20;;
39750;SDS011;37579;51.074;17.004;2024-02-23T00:15:38;2.75;;;1.38;;
39750;SDS011;37579;51.074;17.004;2024-02-23T00:18:04;2.35;;;1.10;;
39750;SDS011;37579;51.074;17.004;2024-02-23T00:20:31;4.55;;;1.40;;
39750;SDS011;37579;51.074;17.004;2024-02-23T00:22:56;1.92;;;1.23;;
39750;SDS011;37579;51.074;17.004;2024-02-23T00:25:22;1.83;;;1.20;;
39750;SDS011;37579;51.074;17.004;2024-02-23T00:27:49;2.42;;;1.30;;
39750;SDS011;37579;51.074;17.004;2024-02-23T00:30:15;1.65;;;0.95;;
39750;SDS011;37579;51.074;17.004;2024-02-23T00:32:41;2.72;;;1.30;;
39750;SDS011;37579;51.074;17.004;2024-02-23T00:35:06;1.98;;;1.10;;
39750;SDS011;37579;51.074;17.004;2024-02-23T00:37:32;2.28;;;1.08;;
39750;SDS011;37579;51.074;17.004;2024-02-23T00:40:03;2.33;;;1.20;;
39750;SDS011;37579;51.074;17.004;2024-02-23T00:42:32;1.70;;;1.10;;
39750;SDS011;37579;51.074;17.004;2024-02-23T00:44:58;2.55;;;1.20;;
39750;SDS011;37579;51.074;17.004;2024-02-23T00:47:24;3.45;;;1.30;;
39750;SDS011;37579;51.074;17.004;2024-02-23T00:49:51;2.65;;;1.25;;
39750;SDS011;37579;51.074;17.004;2024-02-23T00:52:17;2.38;;;1.13;;
39750;SDS011;37579;51.074;17.004;2024-02-23T00:54:43;2.08;;;0.98;;
39750;SDS011;37579;51.074;17.004;2024-02-23T00:57:08;2.38;;;1.17;;
39750;SDS011;37579;51.074;17.004;2024-02-23T00:59:34;2.55;;;1.30;;
39750;SDS011;37579;51.074;17.004;2024-02-23T01:02:00;2.72;;;1.00;;
39750;SDS011;37579;51.074;17.004;2024-02-23T01:04:26;3.80;;;1.25;;
39750;SDS011;37579;51.074;17.004;2024-02-23T01:06:51;1.50;;;0.95;;
39750;SDS011;37579;51.074;17.004;2024-02-23T01:09:17;3.13;;;1.20;;
39750;SDS011;37579;51.074;17.004;2024-02-23T01:11:48;2.72;;;1.00;;
39750;SDS011;37579;51.074;17.004;2024-02-23T01:14:14;2.85;;;1.70;;
39750;SDS011;37579;51.074;17.004;2024-02-23T01:16:40;2.17;;;1.13;;
39750;SDS011;37579;51.074;17.004;2024-02-23T01:19:06;1.65;;;1.10;;
39750;SDS011;37579;51.074;17.004;2024-02-23T01:21:32;1.27;;;0.80;;
39750;SDS011;37579;51.074;17.004;2024-02-23T01:23:58;2.10;;;1.20;;
39750;SDS011;37579;51.074;17.004;2024-02-23T01:26:25;1.77;;;0.90;;
39750;SDS011;37579;51.074;17.004;2024-02-23T01:28:52;1.58;;;0.90;;
39750;SDS011;37579;51.074;17.004;2024-02-23T01:31:18;1.88;;;0.90;;
39750;SDS011;37579;51.074;17.004;2024-02-23T01:33:44;2.92;;;1.00;;
39750;SDS011;37579;51.074;17.004;2024-02-23T01:36:10;1.67;;;0.90;;
39750;SDS011;37579;51.074;17.004;2024-02-23T01:38:36;1.75;;;0.90;;
39750;SDS011;37579;51.074;17.004;2024-02-23T01:41:01;2.20;;;1.15;;
39750;SDS011;37579;51.074;17.004;2024-02-23T01:43:27;1.40;;;1.00;;
39750;SDS011;37579;51.074;17.004;2024-02-23T01:45:53;1.48;;;0.90;;
39750;SDS011;37579;51.074;17.004;2024-02-23T01:48:19;1.75;;;0.88;;
39750;SDS011;37579;51.074;17.004;2024-02-23T01:50:46;1.42;;;1.00;;
39750;SDS011;37579;51.074;17.004;2024-02-23T01:53:12;2.58;;;0.88;;
39750;SDS011;37579;51.074;17.004;2024-02-23T01:55:41;1.70;;;0.98;;
39750;SDS011;37579;51.074;17.004;2024-02-23T01:58:08;1.00;;;0.80;;
39750;SDS011;37579;51.074;17.004;2024-02-23T02:00:34;1.42;;;0.82;;
39750;SDS011;37579;51.074;17.004;2024-02-23T02:03:01;2.42;;;0.70;;
39750;SDS011;37579;51.074;17.004;2024-02-23T02:05:27;3.65;;;0.90;;
39750;SDS011;37579;51.074;17.004;2024-02-23T02:07:53;1.15;;;0.60;;
39750;SDS011;37579;51.074;17.004;2024-02-23T02:10:24;1.30;;;0.63;;
39750;SDS011;37579;51.074;17.004;2024-02-23T02:12:50;1.25;;;0.77;;
39750;SDS011;37579;51.074;17.004;2024-02-23T02:15:16;2.05;;;0.70;;
39750;SDS011;37579;51.074;17.004;2024-02-23T02:17:42;1.88;;;0.90;;
39750;SDS011;37579;51.074;17.004;2024-02-23T02:20:11;2.42;;;0.80;;
39750;SDS011;37579;51.074;17.004;2024-02-23T02:22:37;4.30;;;1.58;;
39750;SDS011;37579;51.074;17.004;2024-02-23T02:25:04;3.00;;;0.98;;
39750;SDS011;37579;51.074;17.004;2024-02-23T02:27:31;1.25;;;0.65;;
39750;SDS011;37579;51.074;17.004;2024-02-23T02:29:58;2.03;;;0.75;;
39750;SDS011;37579;51.074;17.004;2024-02-23T02:32:23;1.10;;;0.70;;
39750;SDS011;37579;51.074;17.004;2024-02-23T02:34:49;1.33;;;0.80;;
39750;SDS011;37579;51.074;17.004;2024-02-23T02:37:15;0.98;;;0.70;;
39750;SDS011;37579;51.074;17.004;2024-02-23T02:39:41;2.65;;;1.02;;
39750;SDS011;37579;51.074;17.004;2024-02-23T02:42:07;1.30;;;0.77;;
39750;SDS011;37579;51.074;17.004;2024-02-23T02:44:33;2.97;;;0.85;;
39750;SDS011;37579;51.074;17.004;2024-02-23T02:46:59;1.05;;;0.60;;
39750;SDS011;37579;51.074;17.004;2024-02-23T02:49:24;1.08;;;0.68;;
39750;SDS011;37579;51.074;17.004;2024-02-23T02:51:50;0.90;;;0.70;;
39750;SDS011;37579;51.074;17.004;2024-02-23T02:54:16;0.90;;;0.60;;
39750;SDS011;37579;51.074;17.004;2024-02-23T02:56:43;2.45;;;0.82;;
39750;SDS011;37579;51.074;17.004;2024-02-23T02:59:11;1.27;;;0.70;;
39750;SDS011;37579;51.074;17.004;2024-02-23T03:01:37;0.95;;;0.70;;
39750;SDS011;37579;51.074;17.004;2024-02-23T03:04:03;0.93;;;0.65;;
39750;SDS011;37579;51.074;17.004;2024-02-23T03:06:29;1.50;;;0.52;;
39750;SDS011;37579;51.074;17.004;2024-02-23T03:08:55;1.42;;;0.60;;
39750;SDS011;37579;51.074;17.004;2024-02-23T03:11:20;1.90;;;0.80;;
39750;SDS011;37579;51.074;17.004;2024-02-23T03:13:46;1.60;;;0.70;;
39750;SDS011;37579;51.074;17.004;2024-02-23T03:16:16;1.27;;;0.75;;
39750;SDS011;37579;51.074;17.004;2024-02-23T03:18:42;0.90;;;0.50;;
39750;SDS011;37579;51.074;17.004;2024-02-23T03:21:08;1.27;;;0.80;;
39750;SDS011;37579;51.074;17.004;2024-02-23T03:23:35;0.88;;;0.55;;
39750;SDS011;37579;51.074;17.004;2024-02-23T03:26:01;1.25;;;0.70;;
39750;SDS011;37579;51.074;17.004;2024-02-23T03:28:27;2.10;;;0.70;;
39750;SDS011;37579;51.074;17.004;2024-02-23T03:30:53;1.30;;;0.70;;
39750;SDS011;37579;51.074;17.004;2024-02-23T03:33:19;1.40;;;0.63;;
39750;SDS011;37579;51.074;17.004;2024-02-23T03:35:45;2.03;;;0.88;;
39750;SDS011;37579;51.074;17.004;2024-02-23T03:38:10;0.98;;;0.65;;
39750;SDS011;37579;51.074;17.004;2024-02-23T03:40:36;1.33;;;0.65;;
39750;SDS011;37579;51.074;17.004;2024-02-23T03:43:03;1.55;;;0.63;;
39750;SDS011;37579;51.074;17.004;2024-02-23T03:45:29;0.80;;;0.60;;
39750;SDS011;37579;51.074;17.004;2024-02-23T03:47:55;1.02;;;0.70;;
39750;SDS011;37579;51.074;17.004;2024-02-23T03:50:20;1.35;;;0.65;;
39750;SDS011;37579;51.074;17.004;2024-02-23T03:52:46;1.58;;;0.60;;
39750;SDS011;37579;51.074;17.004;2024-02-23T03:55:12;1.52;;;0.60;;
39750;SDS011;37579;51.074;17.004;2024-02-23T03:57:38;0.65;;;0.40;;
39750;SDS011;37579;51.074;17.004;2024-02-23T04:00:04;1.00;;;0.70;;
39750;SDS011;37579;51.074;17.004;2024-02-23T04:02:38;1.85;;;0.80;;
39750;SDS011;37579;51.074;17.004;2024-02-23T04:05:04;0.80;;;0.55;;
39750;SDS011;37579;51.074;17.004;2024-02-23T04:07:30;0.90;;;0.55;;
39750;SDS011;37579;51.074;17.004;2024-02-23T04:09:56;1.05;;;0.60;;
39750;SDS011;37579;51.074;17.004;2024-02-23T04:12:22;0.95;;;0.57;;
39750;SDS011;37579;51.074;17.004;2024-02-23T04:14:48;1.48;;;0.52;;
39750;SDS011;37579;51.074;17.004;2024-02-23T04:17:14;1.20;;;0.60;;
39750;SDS011;37579;51.074;17.004;2024-02-23T04:19:40;1.15;;;0.63;;
39750;SDS011;37579;51.074;17.004;2024-02-23T04:22:07;0.90;;;0.70;;
39750;SDS011;37579;51.074;17.004;2024-02-23T04:24:38;0.57;;;0.52;;
39750;SDS011;37579;51.074;17.004;2024-02-23T04:27:05;1.25;;;0.52;;
39750;SDS011;37579;51.074;17.004;2024-02-23T04:29:31;0.82;;;0.50;;
39750;SDS011;37579;51.074;17.004;2024-02-23T04:31:57;1.25;;;0.50;;
39750;SDS011;37579;51.074;17.004;2024-02-23T04:34:24;1.77;;;0.73;;
39750;SDS011;37579;51.074;17.004;2024-02-23T04:36:50;1.67;;;0.65;;
39750;SDS011;37579;51.074;17.004;2024-02-23T04:39:16;0.82;;;0.50;;
39750;SDS011;37579;51.074;17.004;2024-02-23T04:41:42;1.65;;;0.55;;
39750;SDS011;37579;51.074;17.004;2024-02-23T04:44:07;0.65;;;0.50;;
39750;SDS011;37579;51.074;17.004;2024-02-23T04:46:33;1.13;;;0.50;;
39750;SDS011;37579;51.074;17.004;2024-02-23T04:49:00;0.90;;;0.40;;
39750;SDS011;37579;51.074;17.004;2024-02-23T04:51:26;0.93;;;0.60;;
39750;SDS011;37579;51.074;17.004;2024-02-23T04:53:52;0.63;;;0.50;;
39750;SDS011;37579;51.074;17.004;2024-02-23T04:56:18;1.10;;;0.63;;
39750;SDS011;37579;51.074;17.004;2024-02-23T04:58:44;0.82;;;0.55;;
39750;SDS011;37579;51.074;17.004;2024-02-23T05:01:10;0.65;;;0.47;;
39750;SDS011;37579;51.074;17.004;2024-02-23T05:03:36;1.20;;;0.50;;
39750;SDS011;37579;51.074;17.004;2024-02-23T05:06:03;0.88;;;0.60;;
39750;SDS011;37579;51.074;17.004;2024-02-23T05:08:29;1.98;;;0.50;;
39750;SDS011;37579;51.074;17.004;2024-02-23T05:10:58;0.52;;;0.50;;
39750;SDS011;37579;51.074;17.004;2024-02-23T05:13:24;2.03;;;1.05;;
39750;SDS011;37579;51.074;17.004;2024-02-23T05:15:51;0.52;;;0.40;;
39750;SDS011;37579;51.074;17.004;2024-02-23T05:18:16;0.75;;;0.55;;
39750;SDS011;37579;51.074;17.004;2024-02-23T05:20:42;0.68;;;0.40;;
39750;SDS011;37579;51.074;17.004;2024-02-23T05:23:08;0.60;;;0.50;;
39750;SDS011;37579;51.074;17.004;2024-02-23T05:25:34;0.60;;;0.50;;
39750;SDS011;37579;51.074;17.004;2024-02-23T05:28:00;0.55;;;0.40;;
39750;SDS011;37579;51.074;17.004;2024-02-23T05:30:25;1.00;;;0.52;;
39750;SDS011;37579;51.074;17.004;2024-02-23T05:32:57;0.90;;;0.50;;
39750;SDS011;37579;51.074;17.004;2024-02-23T05:35:29;1.05;;;0.52;;
39750;SDS011;37579;51.074;17.004;2024-02-23T05:37:54;2.53;;;0.40;;
39750;SDS011;37579;51.074;17.004;2024-02-23T05:40:20;1.50;;;0.47;;
39750;SDS011;37579;51.074;17.004;2024-02-23T05:42:46;0.70;;;0.43;;
39750;SDS011;37579;51.074;17.004;2024-02-23T05:45:12;0.73;;;0.60;;
39750;SDS011;37579;51.074;17.004;2024-02-23T05:47:38;2.35;;;0.63;;
39750;SDS011;37579;51.074;17.004;2024-02-23T05:50:04;0.65;;;0.43;;
39750;SDS011;37579;51.074;17.004;2024-02-23T05:52:31;0.70;;;0.50;;
39750;SDS011;37579;51.074;17.004;2024-02-23T05:54:57;1.00;;;0.60;;
39750;SDS011;37579;51.074;17.004;2024-02-23T05:57:25;1.00;;;0.40;;
39750;SDS011;37579;51.074;17.004;2024-02-23T05:59:52;3.13;;;0.50;;
39750;SDS011;37579;51.074;17.004;2024-02-23T06:02:18;3.33;;;0.60;;
39750;SDS011;37579;51.074;17.004;2024-02-23T06:04:44;1.60;;;0.60;;
39750;SDS011;37579;51.074;17.004;2024-02-23T06:07:10;1.02;;;0.93;;
39750;SDS011;37579;51.074;17.004;2024-02-23T06:09:36;3.00;;;0.73;;
39750;SDS011;37579;51.074;17.004;2024-02-23T06:12:02;2.38;;;0.50;;
39750;SDS011;37579;51.074;17.004;2024-02-23T06:14:28;1.60;;;0.40;;
39750;SDS011;37579;51.074;17.004;2024-02-23T06:16:54;1.75;;;0.63;;
39750;SDS011;37579;51.074;17.004;2024-02-23T06:19:19;1.85;;;0.70;;
39750;SDS011;37579;51.074;17.004;2024-02-23T06:21:48;1.05;;;0.50;;
39750;SDS011;37579;51.074;17.004;2024-02-23T06:24:15;3.35;;;0.68;;
39750;SDS011;37579;51.074;17.004;2024-02-23T06:26:42;1.55;;;0.50;;
39750;SDS011;37579;51.074;17.004;2024-02-23T06:29:08;1.83;;;0.60;;
39750;SDS011;37579;51.074;17.004;2024-02-23T06:31:39;1.80;;;0.70;;
39750;SDS011;37579;51.074;17.004;2024-02-23T06:34:06;2.35;;;0.70;;
39750;SDS011;37579;51.074;17.004;2024-02-23T06:36:33;4.50;;;0.82;;
39750;SDS011;37579;51.074;17.004;2024-02-23T06:38:59;5.25;;;0.65;;
39750;SDS011;37579;51.074;17.004;2024-02-23T06:41:24;1.70;;;0.50;;
39750;SDS011;37579;51.074;17.004;2024-02-23T06:43:51;2.00;;;0.47;;
39750;SDS011;37579;51.074;17.004;2024-02-23T06:46:18;7.30;;;1.33;;
39750;SDS011;37579;51.074;17.004;2024-02-23T06:48:47;1.67;;;0.50;;
39750;SDS011;37579;51.074;17.004;2024-02-23T06:51:13;6.93;;;0.70;;
39750;SDS011;37579;51.074;17.004;2024-02-23T06:53:40;4.55;;;0.50;;
39750;SDS011;37579;51.074;17.004;2024-02-23T06:56:06;1.70;;;0.57;;
39750;SDS011;37579;51.074;17.004;2024-02-23T06:58:32;2.67;;;0.70;;
39750;SDS011;37579;51.074;17.004;2024-02-23T07:00:58;1.38;;;0.63;;
39750;SDS011;37579;51.074;17.004;2024-02-23T07:03:24;3.42;;;0.75;;
39750;SDS011;37579;51.074;17.004;2024-02-23T07:05:50;1.92;;;0.50;;
39750;SDS011;37579;51.074;17.004;2024-02-23T07:08:16;3.08;;;0.60;;
39750;SDS011;37579;51.074;17.004;2024-02-23T07:10:41;3.03;;;0.73;;
39750;SDS011;37579;51.074;17.004;2024-02-23T07:13:07;3.00;;;0.70;;
39750;SDS011;37579;51.074;17.004;2024-02-23T07:15:34;3.85;;;0.68;;
39750;SDS011;37579;51.074;17.004;2024-02-23T07:18:01;3.97;;;0.63;;
39750;SDS011;37579;51.074;17.004;2024-02-23T07:20:27;3.70;;;0.70;;
39750;SDS011;37579;51.074;17.004;2024-02-23T07:22:53;2.20;;;0.90;;
39750;SDS011;37579;51.074;17.004;2024-02-23T07:25:19;4.00;;;0.73;;
39750;SDS011;37579;51.074;17.004;2024-02-23T07:27:45;1.60;;;0.60;;
39750;SDS011;37579;51.074;17.004;2024-02-23T07:30:14;3.22;;;0.70;;
39750;SDS011;37579;51.074;17.004;2024-02-23T07:32:41;2.17;;;0.80;;
39750;SDS011;37579;51.074;17.004;2024-02-23T07:35:07;2.97;;;0.95;;
39750;SDS011;37579;51.074;17.004;2024-02-23T07:37:33;2.22;;;0.70;;
39750;SDS011;37579;51.074;17.004;2024-02-23T07:39:59;2.50;;;0.63;;
39750;SDS011;37579;51.074;17.004;2024-02-23T07:42:25;1.80;;;0.50;;
39750;SDS011;37579;51.074;17.004;2024-02-23T07:44:52;2.78;;;1.10;;
39750;SDS011;37579;51.074;17.004;2024-02-23T07:47:18;5.68;;;1.75;;
39750;SDS011;37579;51.074;17.004;2024-02-23T07:49:43;4.15;;;1.73;;
39750;SDS011;37579;51.074;17.004;2024-02-23T07:52:09;5.10;;;1.50;;
39750;SDS011;37579;51.074;17.004;2024-02-23T07:54:35;4.78;;;1.70;;
39750;SDS011;37579;51.074;17.004;2024-02-23T07:57:01;4.95;;;1.65;;
39750;SDS011;37579;51.074;17.004;2024-02-23T07:59:27;6.20;;;1.50;;
39750;SDS011;37579;51.074;17.004;2024-02-23T08:01:53;5.57;;;2.00;;
39750;SDS011;37579;51.074;17.004;2024-02-23T08:04:20;7.70;;;2.33;;
39750;SDS011;37579;51.074;17.004;2024-02-23T08:06:46;4.10;;;1.95;;
39750;SDS011;37579;51.074;17.004;2024-02-23T08:09:13;5.00;;;1.60;;
39750;SDS011;37579;51.074;17.004;2024-02-23T08:11:39;4.85;;;1.75;;
39750;SDS011;37579;51.074;17.004;2024-02-23T08:14:05;4.60;;;1.80;;
39750;SDS011;37579;51.074;17.004;2024-02-23T08:16:31;5.30;;;1.83;;
39750;SDS011;37579;51.074;17.004;2024-02-23T08:18:58;6.00;;;1.73;;
39750;SDS011;37579;51.074;17.004;2024-02-23T08:21:24;3.50;;;1.58;;
39750;SDS011;37579;51.074;17.004;2024-02-23T08:23:51;3.78;;;1.40;;
39750;SDS011;37579;51.074;17.004;2024-02-23T08:26:17;7.15;;;1.92;;
39750;SDS011;37579;51.074;17.004;2024-02-23T08:28:43;8.50;;;1.73;;
39750;SDS011;37579;51.074;17.004;2024-02-23T08:31:08;4.00;;;1.70;;
39750;SDS011;37579;51.074;17.004;2024-02-23T08:33:34;6.63;;;2.17;;
39750;SDS011;37579;51.074;17.004;2024-02-23T08:36:00;2.90;;;1.35;;
39750;SDS011;37579;51.074;17.004;2024-02-23T08:38:26;4.60;;;1.90;;
39750;SDS011;37579;51.074;17.004;2024-02-23T08:40:51;4.95;;;1.77;;
39750;SDS011;37579;51.074;17.004;2024-02-23T08:43:17;3.33;;;1.33;;
39750;SDS011;37579;51.074;17.004;2024-02-23T08:45:43;4.85;;;1.60;;
39750;SDS011;37579;51.074;17.004;2024-02-23T08:48:09;4.45;;;1.58;;
39750;SDS011;37579;51.074;17.004;2024-02-23T08:50:40;4.53;;;1.70;;
39750;SDS011;37579;51.074;17.004;2024-02-23T08:53:06;3.47;;;1.88;;
39750;SDS011;37579;51.074;17.004;2024-02-23T08:55:32;3.63;;;1.25;;
39750;SDS011;37579;51.074;17.004;2024-02-23T08:57:58;3.97;;;1.70;;
39750;SDS011;37579;51.074;17.004;2024-02-23T09:00:24;4.85;;;1.77;;
39750;SDS011;37579;51.074;17.004;2024-02-23T09:02:50;4.70;;;1.80;;
39750;SDS011;37579;51.074;17.004;2024-02-23T09:05:16;4.30;;;1.70;;
39750;SDS011;37579;51.074;17.004;2024-02-23T09:07:42;7.63;;;1.98;;
39750;SDS011;37579;51.074;17.004;2024-02-23T09:10:08;8.13;;;1.98;;
39750;SDS011;37579;51.074;17.004;2024-02-23T09:12:34;3.45;;;1.30;;
39750;SDS011;37579;51.074;17.004;2024-02-23T09:15:00;5.57;;;1.95;;
39750;SDS011;37579;51.074;17.004;2024-02-23T09:17:26;9.90;;;2.33;;
39750;SDS011;37579;51.074;17.004;2024-02-23T09:19:51;6.05;;;2.00;;
39750;SDS011;37579;51.074;17.004;2024-02-23T09:22:17;5.22;;;1.75;;
39750;SDS011;37579;51.074;17.004;2024-02-23T09:24:43;5.18;;;1.80;;
39750;SDS011;37579;51.074;17.004;2024-02-23T09:27:09;5.20;;;2.40;;
39750;SDS011;37579;51.074;17.004;2024-02-23T09:29:35;6.47;;;2.10;;
39750;SDS011;37579;51.074;17.004;2024-02-23T09:32:00;4.50;;;2.22;;
39750;SDS011;37579;51.074;17.004;2024-02-23T09:34:26;5.43;;;2.03;;
39750;SDS011;37579;51.074;17.004;2024-02-23T09:36:52;5.53;;;2.00;;
39750;SDS011;37579;51.074;17.004;2024-02-23T09:39:18;4.97;;;1.80;;
39750;SDS011;37579;51.074;17.004;2024-02-23T09:41:45;4.05;;;1.65;;
39750;SDS011;37579;51.074;17.004;2024-02-23T09:44:15;4.72;;;2.10;;
39750;SDS011;37579;51.074;17.004;2024-02-23T09:46:43;3.92;;;1.60;;
39750;SDS011;37579;51.074;17.004;2024-02-23T09:49:11;4.90;;;1.70;;
39750;SDS011;37579;51.074;17.004;2024-02-23T09:51:37;5.25;;;1.98;;
39750;SDS011;37579;51.074;17.004;2024-02-23T09:54:04;5.10;;;1.73;;
39750;SDS011;37579;51.074;17.004;2024-02-23T09:56:30;3.33;;;1.60;;
39750;SDS011;37579;51.074;17.004;2024-02-23T09:58:59;5.47;;;1.80;;
39750;SDS011;37579;51.074;17.004;2024-02-23T10:01:30;3.85;;;1.75;;
39750;SDS011;37579;51.074;17.004;2024-02-23T10:03:58;4.22;;;1.55;;
39750;SDS011;37579;51.074;17.004;2024-02-23T10:06:25;3.42;;;1.90;;
39750;SDS011;37579;51.074;17.004;2024-02-23T10:08:51;5.05;;;1.27;;
39750;SDS011;37579;51.074;17.004;2024-02-23T10:11:22;5.30;;;1.52;;
39750;SDS011;37579;51.074;17.004;2024-02-23T10:13:49;4.95;;;1.65;;
39750;SDS011;37579;51.074;17.004;2024-02-23T10:16:15;4.25;;;1.38;;
39750;SDS011;37579;51.074;17.004;2024-02-23T10:18:42;3.88;;;1.83;;
39750;SDS011;37579;51.074;17.004;2024-02-23T10:21:08;6.03;;;1.50;;
39750;SDS011;37579;51.074;17.004;2024-02-23T10:23:33;3.97;;;1.40;;
39750;SDS011;37579;51.074;17.004;2024-02-23T10:25:59;3.72;;;1.70;;
39750;SDS011;37579;51.074;17.004;2024-02-23T10:28:25;6.22;;;1.55;;
39750;SDS011;37579;51.074;17.004;2024-02-23T10:30:52;3.50;;;1.35;;
39750;SDS011;37579;51.074;17.004;2024-02-23T10:33:20;4.57;;;1.42;;
39750;SDS011;37579;51.074;17.004;2024-02-23T10:35:50;4.43;;;1.33;;
39750;SDS011;37579;51.074;17.004;2024-02-23T10:38:22;3.90;;;1.63;;
39750;SDS011;37579;51.074;17.004;2024-02-23T10:40:50;6.80;;;1.50;;
39750;SDS011;37579;51.074;17.004;2024-02-23T10:43:19;2.63;;;1.17;;
39750;SDS011;37579;51.074;17.004;2024-02-23T10:45:49;3.17;;;1.20;;
39750;SDS011;37579;51.074;17.004;2024-02-23T10:48:16;3.38;;;1.60;;
39750;SDS011;37579;51.074;17.004;2024-02-23T10:50:42;4.35;;;1.10;;
39750;SDS011;37579;51.074;17.004;2024-02-23T10:53:10;3.17;;;1.38;;
39750;SDS011;37579;51.074;17.004;2024-02-23T10:55:39;5.70;;;1.38;;
39750;SDS011;37579;51.074;17.004;2024-02-23T10:58:06;5.50;;;1.40;;
39750;SDS011;37579;51.074;17.004;2024-02-23T11:00:36;1.98;;;1.05;;
39750;SDS011;37579;51.074;17.004;2024-02-23T11:03:02;2.97;;;1.58;;
39750;SDS011;37579;51.074;17.004;2024-02-23T11:05:29;4.47;;;1.15;;
39750;SDS011;37579;51.074;17.004;2024-02-23T11:07:56;8.55;;;1.88;;
39750;SDS011;37579;51.074;17.004;2024-02-23T11:10:22;4.47;;;1.58;;
39750;SDS011;37579;51.074;17.004;2024-02-23T11:13:00;6.05;;;1.20;;
39750;SDS011;37579;51.074;17.004;2024-02-23T11:15:26;7.15;;;1.00;;
39750;SDS011;37579;51.074;17.004;2024-02-23T11:17:53;3.38;;;1.35;;
39750;SDS011;37579;51.074;17.004;2024-02-23T11:20:19;2.72;;;1.10;;
39750;SDS011;37579;51.074;17.004;2024-02-23T11:22:52;1.95;;;1.10;;
39750;SDS011;37579;51.074;17.004;2024-02-23T11:25:19;1.88;;;0.93;;
39750;SDS011;37579;51.074;17.004;2024-02-23T11:27:48;1.88;;;0.93;;
39750;SDS011;37579;51.074;17.004;2024-02-23T11:30:16;2.80;;;1.00;;
39750;SDS011;37579;51.074;17.004;2024-02-23T11:32:43;2.15;;;1.25;;
39750;SDS011;37579;51.074;17.004;2024-02-23T11:35:12;2.92;;;0.90;;
39750;SDS011;37579;51.074;17.004;2024-02-23T11:40:30;1.52;;;0.85;;
39750;SDS011;37579;51.074;17.004;2024-02-23T11:42:57;3.53;;;0.77;;
39750;SDS011;37579;51.074;17.004;2024-02-23T11:45:30;4.07;;;1.02;;
39750;SDS011;37579;51.074;17.004;2024-02-23T11:47:56;2.58;;;1.00;;
39750;SDS011;37579;51.074;17.004;2024-02-23T11:50:22;2.08;;;1.08;;
39750;SDS011;37579;51.074;17.004;2024-02-23T11:52:47;1.85;;;0.82;;
39750;SDS011;37579;51.074;17.004;2024-02-23T11:55:18;3.28;;;1.00;;
39750;SDS011;37579;51.074;17.004;2024-02-23T11:57:47;1.73;;;0.80;;
39750;SDS011;37579;51.074;17.004;2024-02-23T12:00:14;2.15;;;1.00;;
39750;SDS011;37579;51.074;17.004;2024-02-23T12:02:40;2.50;;;0.93;;
39750;SDS011;37579;51.074;17.004;2024-02-23T12:05:06;1.73;;;0.88;;
39750;SDS011;37579;51.074;17.004;2024-02-23T12:07:32;2.85;;;0.90;;
39750;SDS011;37579;51.074;17.004;2024-02-23T12:09:59;1.45;;;0.80;;
39750;SDS011;37579;51.074;17.004;2024-02-23T12:12:25;3.53;;;0.90;;
39750;SDS011;37579;51.074;17.004;2024-02-23T12:14:52;1.92;;;0.95;;
39750;SDS011;37579;51.074;17.004;2024-02-23T12:17:18;3.10;;;1.20;;
39750;SDS011;37579;51.074;17.004;2024-02-23T12:19:44;1.67;;;0.90;;
39750;SDS011;37579;51.074;17.004;2024-02-23T12:22:10;3.58;;;1.50;;
39750;SDS011;37579;51.074;17.004;2024-02-23T12:24:37;3.80;;;1.00;;
39750;SDS011;37579;51.074;17.004;2024-02-23T12:27:05;1.98;;;0.77;;
39750;SDS011;37579;51.074;17.004;2024-02-23T12:29:31;3.15;;;1.42;;
39750;SDS011;37579;51.074;17.004;2024-02-23T12:32:04;3.47;;;1.17;;
39750;SDS011;37579;51.074;17.004;2024-02-23T12:34:30;3.28;;;1.00;;
39750;SDS011;37579;51.074;17.004;2024-02-23T12:36:56;2.35;;;0.90;;
39750;SDS011;37579;51.074;17.004;2024-02-23T12:39:22;2.33;;;0.90;;
39750;SDS011;37579;51.074;17.004;2024-02-23T12:41:48;2.78;;;1.02;;
39750;SDS011;37579;51.074;17.004;2024-02-23T12:44:13;1.75;;;0.93;;
39750;SDS011;37579;51.074;17.004;2024-02-23T12:46:40;2.55;;;0.90;;
39750;SDS011;37579;51.074;17.004;2024-02-23T12:49:05;2.88;;;1.00;;
39750;SDS011;37579;51.074;17.004;2024-02-23T12:51:31;3.00;;;1.10;;
39750;SDS011;37579;51.074;17.004;2024-02-23T12:53:57;2.22;;;0.93;;
39750;SDS011;37579;51.074;17.004;2024-02-23T12:56:23;5.47;;;1.60;;
39750;SDS011;37579;51.074;17.004;2024-02-23T12:58:50;3.75;;;1.02;;
39750;SDS011;37579;51.074;17.004;2024-02-23T13:01:16;1.92;;;1.00;;
39750;SDS011;37579;51.074;17.004;2024-02-23T13:03:42;1.45;;;0.90;;
39750;SDS011;37579;51.074;17.004;2024-02-23T13:06:08;5.18;;;1.00;;
39750;SDS011;37579;51.074;17.004;2024-02-23T13:08:34;3.28;;;0.70;;
39750;SDS011;37579;51.074;17.004;2024-02-23T13:11:00;3.17;;;0.93;;
39750;SDS011;37579;51.074;17.004;2024-02-23T13:13:26;3.20;;;1.05;;
39750;SDS011;37579;51.074;17.004;2024-02-23T13:15:52;1.38;;;0.73;;
39750;SDS011;37579;51.074;17.004;2024-02-23T13:18:19;3.20;;;1.00;;
39750;SDS011;37579;51.074;17.004;2024-02-23T13:20:45;3.35;;;1.20;;
39750;SDS011;37579;51.074;17.004;2024-02-23T13:23:11;4.43;;;1.20;;
39750;SDS011;37579;51.074;17.004;2024-02-23T13:25:38;2.50;;;1.15;;
39750;SDS011;37579;51.074;17.004;2024-02-23T13:28:05;3.97;;;1.20;;
39750;SDS011;37579;51.074;17.004;2024-02-23T13:30:31;3.65;;;1.10;;
39750;SDS011;37579;51.074;17.004;2024-02-23T13:32:58;2.78;;;1.08;;
39750;SDS011;37579;51.074;17.004;2024-02-23T13:35:24;7.38;;;1.30;;
39750;SDS011;37579;51.074;17.004;2024-02-23T13:37:50;2.55;;;1.17;;
39750;SDS011;37579;51.074;17.004;2024-02-23T13:40:16;4.40;;;1.30;;
39750;SDS011;37579;51.074;17.004;2024-02-23T13:42:42;10.65;;;2.55;;
39750;SDS011;37579;51.074;17.004;2024-02-23T13:45:11;8.85;;;3.22;;
39750;SDS011;37579;51.074;17.004;2024-02-23T13:47:39;23.23;;;7.93;;
39750;SDS011;37579;51.074;17.004;2024-02-23T13:50:05;26.15;;;8.48;;
39750;SDS011;37579;51.074;17.004;2024-02-23T13:52:31;23.65;;;8.68;;
39750;SDS011;37579;51.074;17.004;2024-02-23T13:54:57;23.55;;;8.00;;
39750;SDS011;37579;51.074;17.004;2024-02-23T13:57:23;25.50;;;8.40;;
39750;SDS011;37579;51.074;17.004;2024-02-23T13:59:49;23.65;;;8.13;;
39750;SDS011;37579;51.074;17.004;2024-02-23T14:02:15;20.27;;;7.68;;
39750;SDS011;37579;51.074;17.004;2024-02-23T14:04:41;20.38;;;7.53;;
39750;SDS011;37579;51.074;17.004;2024-02-23T14:07:07;20.95;;;7.22;;
39750;SDS011;37579;51.074;17.004;2024-02-23T14:09:33;22.98;;;7.55;;
39750;SDS011;37579;51.074;17.004;2024-02-23T14:11:59;17.92;;;6.57;;
39750;SDS011;37579;51.074;17.004;2024-02-23T14:14:25;21.98;;;7.47;;
39750;SDS011;37579;51.074;17.004;2024-02-23T14:16:51;21.17;;;7.63;;
39750;SDS011;37579;51.074;17.004;2024-02-23T14:19:16;23.48;;;7.63;;
39750;SDS011;37579;51.074;17.004;2024-02-23T14:21:45;19.02;;;7.25;;
39750;SDS011;37579;51.074;17.004;2024-02-23T14:24:13;20.92;;;6.88;;
39750;SDS011;37579;51.074;17.004;2024-02-23T14:26:39;16.67;;;7.53;;
39750;SDS011;37579;51.074;17.004;2024-02-23T14:29:05;15.73;;;6.28;;
39750;SDS011;37579;51.074;17.004;2024-02-23T14:31:31;17.90;;;7.00;;